sensor_id;sensor_type;location;lat;lon;timestamp;pressure;altitude;pressure_sealevel;temperature;humidity
59170;BME280;52474;52.236;5.114;2023-02-01T00:00:10;101978.97;;;4.76;100.00
59170;BME280;52474;52.236;5.114;2023-02-01T00:02:37;101974.88;;;4.89;100.00
59170;BME280;52474;52.236;5.114;2023-02-01T00:05:09;101969.78;;;4.86;100.00
59170;BME280;52474;52.236;5.114;2023-02-01T00:07:36;101976.31;;;4.97;100.00
59170;BME280;52474;52.236;5.114;2023-02-01T00:10:03;101973.38;;;4.84;100.00
59170;BME280;52474;52.236;5.114;2023-02-01T00:12:30;101975.88;;;5.07;100.00
59170;BME280;52474;52.236;5.114;2023-02-01T00:14:55;101973.03;;;5.12;100.00
59170;BME280;52474;52.236;5.114;2023-02-01T00:17:21;101970.03;;;5.01;100.00
59170;BME280;52474;52.236;5.114;2023-02-01T00:19:47;101980.19;;;5.08;100.00
59170;BME280;52474;52.236;5.114;2023-02-01T00:22:12;101958.59;;;5.02;100.00
59170;BME280;52474;52.236;5.114;2023-02-01T00:24:38;101980.53;;;5.01;100.00
59170;BME280;52474;52.236;5.114;2023-02-01T00:27:04;101975.13;;;5.04;100.00
59170;BME280;52474;52.236;5.114;2023-02-01T00:29:29;101973.09;;;5.10;100.00
59170;BME280;52474;52.236;5.114;2023-02-01T00:31:55;101969.19;;;5.19;100.00
59170;BME280;52474;52.236;5.114;2023-02-01T00:34:21;101966.84;;;5.13;100.00
59170;BME280;52474;52.236;5.114;2023-02-01T00:36:47;101945.34;;;5.05;100.00
59170;BME280;52474;52.236;5.114;2023-02-01T00:39:13;101974.00;;;5.09;100.00
59170;BME280;52474;52.236;5.114;2023-02-01T00:41:39;101973.59;;;5.19;100.00
59170;BME280;52474;52.236;5.114;2023-02-01T00:44:06;101955.31;;;5.17;100.00
59170;BME280;52474;52.236;5.114;2023-02-01T00:46:31;101949.13;;;5.18;100.00
59170;BME280;52474;52.236;5.114;2023-02-01T00:48:57;101957.78;;;5.20;100.00
59170;BME280;52474;52.236;5.114;2023-02-01T00:51:25;101973.25;;;5.26;100.00
59170;BME280;52474;52.236;5.114;2023-02-01T00:53:52;101967.94;;;5.28;100.00
59170;BME280;52474;52.236;5.114;2023-02-01T00:56:18;101958.88;;;5.35;100.00
59170;BME280;52474;52.236;5.114;2023-02-01T00:58:44;101956.78;;;5.23;100.00
59170;BME280;52474;52.236;5.114;2023-02-01T01:01:19;101950.66;;;5.03;100.00
59170;BME280;52474;52.236;5.114;2023-02-01T01:03:48;101936.81;;;5.00;100.00
59170;BME280;52474;52.236;5.114;2023-02-01T01:06:19;101945.47;;;5.02;100.00
59170;BME280;52474;52.236;5.114;2023-02-01T01:08:46;101954.72;;;5.10;100.00
59170;BME280;52474;52.236;5.114;2023-02-01T01:11:17;101939.03;;;5.09;100.00
59170;BME280;52474;52.236;5.114;2023-02-01T01:13:46;101946.91;;;5.09;100.00
59170;BME280;52474;52.236;5.114;2023-02-01T01:16:12;101954.78;;;5.09;100.00
59170;BME280;52474;52.236;5.114;2023-02-01T01:18:38;101947.97;;;5.05;100.00
59170;BME280;52474;52.236;5.114;2023-02-01T01:21:05;101944.91;;;4.95;100.00
59170;BME280;52474;52.236;5.114;2023-02-01T01:23:32;101940.34;;;4.99;100.00
59170;BME280;52474;52.236;5.114;2023-02-01T01:25:58;101956.34;;;5.13;100.00
59170;BME280;52474;52.236;5.114;2023-02-01T01:28:24;101945.66;;;5.18;100.00
59170;BME280;52474;52.236;5.114;2023-02-01T01:30:49;101931.16;;;5.09;100.00
59170;BME280;52474;52.236;5.114;2023-02-01T01:33:16;101934.84;;;5.05;100.00
59170;BME280;52474;52.236;5.114;2023-02-01T01:35:42;101937.03;;;5.14;100.00
59170;BME280;52474;52.236;5.114;2023-02-01T01:38:09;101948.56;;;5.30;100.00
59170;BME280;52474;52.236;5.114;2023-02-01T01:40:35;101955.38;;;5.34;100.00
59170;BME280;52474;52.236;5.114;2023-02-01T01:43:01;101936.00;;;5.37;100.00
59170;BME280;52474;52.236;5.114;2023-02-01T01:45:27;101940.28;;;5.40;100.00
59170;BME280;52474;52.236;5.114;2023-02-01T01:48:09;101924.72;;;5.35;100.00
59170;BME280;52474;52.236;5.114;2023-02-01T01:50:40;101943.53;;;5.45;100.00
59170;BME280;52474;52.236;5.114;2023-02-01T01:53:11;101935.50;;;5.48;100.00
59170;BME280;52474;52.236;5.114;2023-02-01T01:55:42;101919.59;;;5.51;100.00
59170;BME280;52474;52.236;5.114;2023-02-01T01:58:13;101916.59;;;5.58;100.00
59170;BME280;52474;52.236;5.114;2023-02-01T02:00:40;101915.94;;;5.72;100.00
59170;BME280;52474;52.236;5.114;2023-02-01T02:03:40;101916.53;;;5.60;100.00
59170;BME280;52474;52.236;5.114;2023-02-01T02:06:18;101910.06;;;5.67;100.00
59170;BME280;52474;52.236;5.114;2023-02-01T02:08:47;101920.63;;;5.66;100.00
59170;BME280;52474;52.236;5.114;2023-02-01T02:11:15;101904.69;;;5.51;100.00
59170;BME280;52474;52.236;5.114;2023-02-01T02:13:43;101926.31;;;5.75;100.00
59170;BME280;52474;52.236;5.114;2023-02-01T02:16:20;101909.91;;;5.70;100.00
59170;BME280;52474;52.236;5.114;2023-02-01T02:27:04;101881.38;;;5.63;100.00
59170;BME280;52474;52.236;5.114;2023-02-01T02:32:44;101882.81;;;5.87;100.00
59170;BME280;52474;52.236;5.114;2023-02-01T02:38:15;101893.75;;;5.78;100.00
59170;BME280;52474;52.236;5.114;2023-02-01T02:40:49;101892.00;;;5.78;100.00
59170;BME280;52474;52.236;5.114;2023-02-01T02:43:25;101889.00;;;5.86;100.00
59170;BME280;52474;52.236;5.114;2023-02-01T02:46:46;101881.81;;;5.90;100.00
59170;BME280;52474;52.236;5.114;2023-02-01T02:49:43;101868.41;;;5.96;100.00
59170;BME280;52474;52.236;5.114;2023-02-01T02:52:36;101866.63;;;5.77;100.00
59170;BME280;52474;52.236;5.114;2023-02-01T02:55:25;101850.81;;;5.79;100.00
59170;BME280;52474;52.236;5.114;2023-02-01T02:57:53;101850.31;;;5.71;100.00
59170;BME280;52474;52.236;5.114;2023-02-01T03:00:39;101865.81;;;5.58;100.00
59170;BME280;52474;52.236;5.114;2023-02-01T03:03:24;101847.38;;;5.41;100.00
59170;BME280;52474;52.236;5.114;2023-02-01T03:06:16;101853.63;;;5.38;100.00
59170;BME280;52474;52.236;5.114;2023-02-01T03:08:44;101851.84;;;5.38;100.00
59170;BME280;52474;52.236;5.114;2023-02-01T03:11:13;101849.38;;;5.35;100.00
59170;BME280;52474;52.236;5.114;2023-02-01T03:13:57;101854.63;;;5.35;100.00
59170;BME280;52474;52.236;5.114;2023-02-01T03:19:37;101854.16;;;5.27;100.00
59170;BME280;52474;52.236;5.114;2023-02-01T03:22:11;101853.44;;;5.24;100.00
59170;BME280;52474;52.236;5.114;2023-02-01T03:24:41;101856.28;;;5.19;100.00
59170;BME280;52474;52.236;5.114;2023-02-01T03:29:56;101863.44;;;5.15;100.00
59170;BME280;52474;52.236;5.114;2023-02-01T03:32:24;101860.41;;;5.25;100.00
59170;BME280;52474;52.236;5.114;2023-02-01T03:34:51;101858.13;;;5.17;100.00
59170;BME280;52474;52.236;5.114;2023-02-01T03:37:28;101859.47;;;5.07;100.00
59170;BME280;52474;52.236;5.114;2023-02-01T03:40:01;101848.13;;;5.06;100.00
59170;BME280;52474;52.236;5.114;2023-02-01T03:42:37;101856.16;;;5.22;100.00
59170;BME280;52474;52.236;5.114;2023-02-01T03:45:13;101849.25;;;5.20;100.00
59170;BME280;52474;52.236;5.114;2023-02-01T03:47:48;101845.19;;;5.31;100.00
59170;BME280;52474;52.236;5.114;2023-02-01T03:50:17;101843.53;;;5.48;100.00
59170;BME280;52474;52.236;5.114;2023-02-01T03:52:52;101864.34;;;5.52;100.00
59170;BME280;52474;52.236;5.114;2023-02-01T03:55:21;101865.41;;;5.48;100.00
59170;BME280;52474;52.236;5.114;2023-02-01T03:57:54;101850.31;;;5.34;100.00
59170;BME280;52474;52.236;5.114;2023-02-01T04:00:24;101862.78;;;5.48;100.00
59170;BME280;52474;52.236;5.114;2023-02-01T04:02:51;101886.94;;;5.56;100.00
59170;BME280;52474;52.236;5.114;2023-02-01T04:05:18;101874.06;;;5.69;100.00
59170;BME280;52474;52.236;5.114;2023-02-01T04:07:52;101865.00;;;5.75;100.00
59170;BME280;52474;52.236;5.114;2023-02-01T04:10:19;101857.28;;;5.72;100.00
59170;BME280;52474;52.236;5.114;2023-02-01T04:12:45;101852.84;;;5.55;100.00
59170;BME280;52474;52.236;5.114;2023-02-01T04:15:11;101854.78;;;5.51;100.00
59170;BME280;52474;52.236;5.114;2023-02-01T04:17:37;101878.81;;;5.61;100.00
59170;BME280;52474;52.236;5.114;2023-02-01T04:20:03;101880.31;;;5.67;100.00
59170;BME280;52474;52.236;5.114;2023-02-01T04:22:30;101873.28;;;5.48;100.00
59170;BME280;52474;52.236;5.114;2023-02-01T04:24:56;101868.19;;;5.45;100.00
59170;BME280;52474;52.236;5.114;2023-02-01T04:27:22;101873.28;;;5.48;100.00
59170;BME280;52474;52.236;5.114;2023-02-01T04:29:48;101857.22;;;5.37;100.00
59170;BME280;52474;52.236;5.114;2023-02-01T04:32:16;101874.81;;;5.35;100.00
59170;BME280;52474;52.236;5.114;2023-02-01T04:34:42;101858.00;;;5.20;100.00
59170;BME280;52474;52.236;5.114;2023-02-01T04:37:08;101845.28;;;5.11;100.00
59170;BME280;52474;52.236;5.114;2023-02-01T04:39:34;101866.28;;;5.11;100.00
59170;BME280;52474;52.236;5.114;2023-02-01T04:41:59;101863.88;;;5.06;100.00
59170;BME280;52474;52.236;5.114;2023-02-01T04:44:25;101850.53;;;5.11;100.00
59170;BME280;52474;52.236;5.114;2023-02-01T04:46:51;101858.13;;;5.17;100.00
59170;BME280;52474;52.236;5.114;2023-02-01T04:49:16;101843.44;;;5.13;100.00
59170;BME280;52474;52.236;5.114;2023-02-01T04:51:42;101843.44;;;5.13;100.00
59170;BME280;52474;52.236;5.114;2023-02-01T04:54:09;101832.09;;;5.12;100.00
59170;BME280;52474;52.236;5.114;2023-02-01T04:56:37;101851.47;;;5.10;100.00
59170;BME280;52474;52.236;5.114;2023-02-01T04:59:04;101854.50;;;5.01;100.00
59170;BME280;52474;52.236;5.114;2023-02-01T05:01:30;101849.41;;;4.98;100.00
59170;BME280;52474;52.236;5.114;2023-02-01T05:03:56;101858.28;;;4.95;100.00
59170;BME280;52474;52.236;5.114;2023-02-01T05:06:22;101863.97;;;5.05;100.00
59170;BME280;52474;52.236;5.114;2023-02-01T05:08:48;101854.63;;;5.16;100.00
59170;BME280;52474;52.236;5.114;2023-02-01T05:11:14;101854.31;;;5.24;100.00
59170;BME280;52474;52.236;5.114;2023-02-01T05:13:59;101848.47;;;5.18;100.00
59170;BME280;52474;52.236;5.114;2023-02-01T05:16:25;101840.88;;;5.11;100.00
59170;BME280;52474;52.236;5.114;2023-02-01T05:18:51;101845.66;;;5.22;100.00
59170;BME280;52474;52.236;5.114;2023-02-01T05:21:17;101853.63;;;5.19;100.00
59170;BME280;52474;52.236;5.114;2023-02-01T05:23:43;101856.94;;;5.24;100.00
59170;BME280;52474;52.236;5.114;2023-02-01T05:26:27;101867.44;;;5.24;100.00
59170;BME280;52474;52.236;5.114;2023-02-01T05:28:53;101879.91;;;5.19;100.00
59170;BME280;52474;52.236;5.114;2023-02-01T05:31:18;101863.41;;;5.17;100.00
59170;BME280;52474;52.236;5.114;2023-02-01T05:33:44;101874.44;;;5.24;100.00
59170;BME280;52474;52.236;5.114;2023-02-01T05:36:10;101877.06;;;5.24;100.00
59170;BME280;52474;52.236;5.114;2023-02-01T05:38:35;101867.66;;;5.20;100.00
59170;BME280;52474;52.236;5.114;2023-02-01T05:41:01;101874.72;;;5.36;100.00
59170;BME280;52474;52.236;5.114;2023-02-01T05:43:27;101871.97;;;5.40;100.00
59170;BME280;52474;52.236;5.114;2023-02-01T05:45:53;101865.78;;;5.41;100.00
59170;BME280;52474;52.236;5.114;2023-02-01T05:48:18;101864.34;;;5.52;100.00
59170;BME280;52474;52.236;5.114;2023-02-01T05:50:44;101869.75;;;5.49;100.00
59170;BME280;52474;52.236;5.114;2023-02-01T05:53:11;101872.38;;;5.49;100.00
59170;BME280;52474;52.236;5.114;2023-02-01T05:55:37;101875.06;;;5.48;100.00
59170;BME280;52474;52.236;5.114;2023-02-01T05:58:03;101860.16;;;5.48;100.00
59170;BME280;52474;52.236;5.114;2023-02-01T06:00:29;101869.66;;;5.51;100.00
59170;BME280;52474;52.236;5.114;2023-02-01T06:02:54;101874.00;;;5.52;100.00
59170;BME280;52474;52.236;5.114;2023-02-01T06:05:20;101867.25;;;5.46;100.00
59170;BME280;52474;52.236;5.114;2023-02-01T06:07:46;101857.22;;;5.37;100.00
59170;BME280;52474;52.236;5.114;2023-02-01T06:10:12;101872.97;;;5.37;100.00
59170;BME280;52474;52.236;5.114;2023-02-01T06:12:38;101870.81;;;5.26;100.00
59170;BME280;52474;52.236;5.114;2023-02-01T06:15:04;101876.22;;;5.23;100.00
59170;BME280;52474;52.236;5.114;2023-02-01T06:17:30;101870.63;;;5.12;100.00
59170;BME280;52474;52.236;5.114;2023-02-01T06:19:56;101863.22;;;5.01;100.00
59170;BME280;52474;52.236;5.114;2023-02-01T06:22:22;101866.69;;;5.02;100.00
59170;BME280;52474;52.236;5.114;2023-02-01T06:24:47;101879.47;;;5.09;100.00
59170;BME280;52474;52.236;5.114;2023-02-01T06:27:14;101876.34;;;5.01;100.00
59170;BME280;52474;52.236;5.114;2023-02-01T06:29:40;101877.00;;;5.06;100.00
59170;BME280;52474;52.236;5.114;2023-02-01T06:32:06;101880.56;;;5.05;100.00
59170;BME280;52474;52.236;5.114;2023-02-01T06:34:32;101875.66;;;4.98;100.00
59170;BME280;52474;52.236;5.114;2023-02-01T06:36:58;101866.34;;;4.90;100.00
59170;BME280;52474;52.236;5.114;2023-02-01T06:39:23;101871.47;;;4.93;100.00
59170;BME280;52474;52.236;5.114;2023-02-01T06:41:49;101874.50;;;5.03;100.00
59170;BME280;52474;52.236;5.114;2023-02-01T06:44:16;101877.78;;;5.08;100.00
59170;BME280;52474;52.236;5.114;2023-02-01T06:46:42;101863.44;;;4.97;100.00
59170;BME280;52474;52.236;5.114;2023-02-01T06:49:08;101866.16;;;4.95;100.00
59170;BME280;52474;52.236;5.114;2023-02-01T06:51:34;101877.56;;;5.13;100.00
59170;BME280;52474;52.236;5.114;2023-02-01T06:54:00;101876.53;;;5.17;100.00
59170;BME280;52474;52.236;5.114;2023-02-01T06:56:27;101865.88;;;5.20;100.00
59170;BME280;52474;52.236;5.114;2023-02-01T06:58:53;101878.44;;;5.32;100.00
59170;BME280;52474;52.236;5.114;2023-02-01T07:01:19;101870.25;;;5.38;100.00
59170;BME280;52474;52.236;5.114;2023-02-01T07:03:49;101872.25;;;5.33;100.00
59170;BME280;52474;52.236;5.114;2023-02-01T07:06:16;101874.03;;;5.33;100.00
59170;BME280;52474;52.236;5.114;2023-02-01T07:08:43;101863.41;;;5.17;100.00
59170;BME280;52474;52.236;5.114;2023-02-01T07:11:11;101866.28;;;5.30;100.00
59170;BME280;52474;52.236;5.114;2023-02-01T07:13:38;101860.19;;;5.29;100.00
59170;BME280;52474;52.236;5.114;2023-02-01T07:16:08;101877.66;;;5.30;100.00
59170;BME280;52474;52.236;5.114;2023-02-01T07:18:34;101862.88;;;5.28;100.00
59170;BME280;52474;52.236;5.114;2023-02-01T07:21:00;101881.06;;;5.32;100.00
59170;BME280;52474;52.236;5.114;2023-02-01T07:23:26;101877.84;;;5.26;100.00
59170;BME280;52474;52.236;5.114;2023-02-01T07:25:54;101880.47;;;5.26;100.00
59170;BME280;52474;52.236;5.114;2023-02-01T07:28:19;101882.06;;;5.30;100.00
59170;BME280;52474;52.236;5.114;2023-02-01T07:30:45;101861.66;;;5.16;100.00
59170;BME280;52474;52.236;5.114;2023-02-01T07:33:23;101874.66;;;5.19;100.00
59170;BME280;52474;52.236;5.114;2023-02-01T07:35:50;101861.81;;;5.13;100.00
59170;BME280;52474;52.236;5.114;2023-02-01T07:38:16;101866.13;;;5.14;100.00
59170;BME280;52474;52.236;5.114;2023-02-01T07:40:42;101882.53;;;5.19;100.00
59170;BME280;52474;52.236;5.114;2023-02-01T07:43:08;101886.03;;;5.20;100.00
59170;BME280;52474;52.236;5.114;2023-02-01T07:45:35;101896.72;;;5.34;100.00
59170;BME280;52474;52.236;5.114;2023-02-01T07:48:01;101885.16;;;5.38;100.00
59170;BME280;52474;52.236;5.114;2023-02-01T07:50:27;101890.16;;;5.25;100.00
59170;BME280;52474;52.236;5.114;2023-02-01T07:52:53;101888.50;;;5.23;100.00
59170;BME280;52474;52.236;5.114;2023-02-01T07:55:19;101891.63;;;5.31;100.00
59170;BME280;52474;52.236;5.114;2023-02-01T07:57:46;101904.97;;;5.45;100.00
59170;BME280;52474;52.236;5.114;2023-02-01T08:00:12;101899.44;;;5.51;100.00
59170;BME280;52474;52.236;5.114;2023-02-01T08:02:58;101898.16;;;5.41;100.00
59170;BME280;52474;52.236;5.114;2023-02-01T08:05:24;101881.13;;;5.31;100.00
59170;BME280;52474;52.236;5.114;2023-02-01T08:07:50;101885.47;;;5.32;100.00
59170;BME280;52474;52.236;5.114;2023-02-01T08:10:16;101881.47;;;5.42;100.00
59170;BME280;52474;52.236;5.114;2023-02-01T08:12:43;101878.22;;;5.37;100.00
59170;BME280;52474;52.236;5.114;2023-02-01T08:15:17;101872.44;;;5.48;100.00
59170;BME280;52474;52.236;5.114;2023-02-01T08:17:50;101879.81;;;5.58;100.00
59170;BME280;52474;52.236;5.114;2023-02-01T08:20:17;101879.22;;;5.71;100.00
59170;BME280;52474;52.236;5.114;2023-02-01T08:22:44;101877.94;;;5.79;100.00
59170;BME280;52474;52.236;5.114;2023-02-01T08:25:10;101873.69;;;5.77;100.00
59170;BME280;52474;52.236;5.114;2023-02-01T08:27:37;101869.41;;;5.74;100.00
59170;BME280;52474;52.236;5.114;2023-02-01T08:30:04;101869.72;;;5.86;100.00
59170;BME280;52474;52.236;5.114;2023-02-01T08:32:33;101871.78;;;5.98;100.00
59170;BME280;52474;52.236;5.114;2023-02-01T08:34:59;101849.63;;;6.21;100.00
59170;BME280;52474;52.236;5.114;2023-02-01T08:37:25;101868.06;;;6.37;100.00
59170;BME280;52474;52.236;5.114;2023-02-01T08:39:53;101867.44;;;6.49;100.00
59170;BME280;52474;52.236;5.114;2023-02-01T08:42:22;101867.19;;;6.71;100.00
59170;BME280;52474;52.236;5.114;2023-02-01T08:45:07;101859.44;;;6.68;100.00
59170;BME280;52474;52.236;5.114;2023-02-01T08:47:33;101855.72;;;6.72;100.00
59170;BME280;52474;52.236;5.114;2023-02-01T08:49:59;101885.53;;;6.73;100.00
59170;BME280;52474;52.236;5.114;2023-02-01T08:52:25;101877.06;;;6.83;100.00
59170;BME280;52474;52.236;5.114;2023-02-01T08:54:51;101881.44;;;7.00;100.00
59170;BME280;52474;52.236;5.114;2023-02-01T08:57:16;101872.78;;;7.14;100.00
59170;BME280;52474;52.236;5.114;2023-02-01T08:59:42;101855.03;;;7.02;100.00
59170;BME280;52474;52.236;5.114;2023-02-01T09:02:14;101861.06;;;7.36;100.00
59170;BME280;52474;52.236;5.114;2023-02-01T09:04:41;101868.38;;;7.46;100.00
59170;BME280;52474;52.236;5.114;2023-02-01T09:07:08;101848.56;;;7.39;100.00
59170;BME280;52474;52.236;5.114;2023-02-01T09:09:34;101853.66;;;7.10;100.00
59170;BME280;52474;52.236;5.114;2023-02-01T09:12:00;101851.88;;;7.11;100.00
59170;BME280;52474;52.236;5.114;2023-02-01T09:14:26;101847.03;;;7.03;100.00
59170;BME280;52474;52.236;5.114;2023-02-01T09:16:52;101843.78;;;6.98;100.00
59170;BME280;52474;52.236;5.114;2023-02-01T09:19:20;101848.63;;;6.90;100.00
59170;BME280;52474;52.236;5.114;2023-02-01T09:21:46;101851.75;;;6.81;100.00
59170;BME280;52474;52.236;5.114;2023-02-01T09:24:13;101846.66;;;6.78;100.00
59170;BME280;52474;52.236;5.114;2023-02-01T09:26:38;101861.25;;;6.68;100.00
59170;BME280;52474;52.236;5.114;2023-02-01T09:29:05;101883.91;;;6.70;100.00
59170;BME280;52474;52.236;5.114;2023-02-01T09:31:38;101858.06;;;6.61;100.00
59170;BME280;52474;52.236;5.114;2023-02-01T09:34:04;101852.03;;;6.59;100.00
59170;BME280;52474;52.236;5.114;2023-02-01T09:36:31;101857.13;;;6.62;100.00
59170;BME280;52474;52.236;5.114;2023-02-01T09:39:00;101856.44;;;6.58;100.00
59170;BME280;52474;52.236;5.114;2023-02-01T09:46:34;101862.34;;;6.46;100.00
59170;BME280;52474;52.236;5.114;2023-02-01T09:49:10;101865.22;;;6.41;100.00
59170;BME280;52474;52.236;5.114;2023-02-01T09:51:41;101859.34;;;6.36;100.00
59170;BME280;52474;52.236;5.114;2023-02-01T09:54:17;101859.78;;;6.44;100.00
59170;BME280;52474;52.236;5.114;2023-02-01T10:01:50;101866.84;;;6.44;100.00
59170;BME280;52474;52.236;5.114;2023-02-01T10:04:17;101860.53;;;6.31;100.00
59170;BME280;52474;52.236;5.114;2023-02-01T10:10:08;101861.38;;;6.14;100.00
59170;BME280;52474;52.236;5.114;2023-02-01T10:12:49;101852.38;;;6.00;100.00
59170;BME280;52474;52.236;5.114;2023-02-01T10:26:19;101880.34;;;6.20;100.00
59170;BME280;52474;52.236;5.114;2023-02-01T10:28:55;101874.06;;;6.23;100.00
59170;BME280;52474;52.236;5.114;2023-02-01T10:31:25;101852.00;;;6.26;100.00
59170;BME280;52474;52.236;5.114;2023-02-01T10:33:56;101871.66;;;6.36;100.00
59170;BME280;52474;52.236;5.114;2023-02-01T10:36:29;101845.31;;;6.53;100.00
59170;BME280;52474;52.236;5.114;2023-02-01T10:38:59;101839.44;;;6.81;100.00
59170;BME280;52474;52.236;5.114;2023-02-01T10:41:31;101849.13;;;7.76;100.00
59170;BME280;52474;52.236;5.114;2023-02-01T10:44:00;101861.66;;;7.57;100.00
59170;BME280;52474;52.236;5.114;2023-02-01T10:46:29;101845.53;;;7.77;100.00
59170;BME280;52474;52.236;5.114;2023-02-01T10:48:59;101838.97;;;7.84;100.00
59170;BME280;52474;52.236;5.114;2023-02-01T10:51:49;101841.16;;;7.62;100.00
59170;BME280;52474;52.236;5.114;2023-02-01T10:54:23;101838.94;;;7.54;100.00
59170;BME280;52474;52.236;5.114;2023-02-01T10:56:57;101861.06;;;7.20;100.00
59170;BME280;52474;52.236;5.114;2023-02-01T10:59:28;101846.16;;;6.87;100.00
59170;BME280;52474;52.236;5.114;2023-02-01T11:02:00;101848.19;;;6.82;100.00
59170;BME280;52474;52.236;5.114;2023-02-01T11:04:31;101834.34;;;6.78;100.00
59170;BME280;52474;52.236;5.114;2023-02-01T11:07:17;101849.53;;;6.89;100.00
59170;BME280;52474;52.236;5.114;2023-02-01T11:09:50;101851.09;;;6.93;100.00
59170;BME280;52474;52.236;5.114;2023-02-01T11:12:26;101864.97;;;6.97;100.00
59170;BME280;52474;52.236;5.114;2023-02-01T11:15:43;101842.94;;;6.98;100.00
59170;BME280;52474;52.236;5.114;2023-02-01T11:17:46;101845.81;;;6.93;100.00
59170;BME280;52474;52.236;5.114;2023-02-01T11:20:18;101839.88;;;6.90;100.00
59170;BME280;52474;52.236;5.114;2023-02-01T11:22:48;101850.94;;;7.28;100.00
59170;BME280;52474;52.236;5.114;2023-02-01T11:25:18;101843.44;;;7.52;100.00
59170;BME280;52474;52.236;5.114;2023-02-01T11:27:44;101855.13;;;7.32;100.00
59170;BME280;52474;52.236;5.114;2023-02-01T11:30:16;101834.19;;;7.13;100.00
59170;BME280;52474;52.236;5.114;2023-02-01T11:32:46;101825.88;;;7.21;100.00
59170;BME280;52474;52.236;5.114;2023-02-01T11:35:17;101829.53;;;7.18;100.00
59170;BME280;52474;52.236;5.114;2023-02-01T11:37:50;101827.22;;;7.28;100.00
59170;BME280;52474;52.236;5.114;2023-02-01T11:43:32;101830.38;;;7.35;100.00
59170;BME280;52474;52.236;5.114;2023-02-01T11:48:24;101823.34;;;7.81;100.00
59170;BME280;52474;52.236;5.114;2023-02-01T11:57:23;101822.16;;;7.71;100.00
59170;BME280;52474;52.236;5.114;2023-02-01T12:14:13;101801.91;;;7.71;100.00
59170;BME280;52474;52.236;5.114;2023-02-01T12:17:18;101813.56;;;7.67;100.00
59170;BME280;52474;52.236;5.114;2023-02-01T12:22:44;101821.03;;;7.75;100.00
59170;BME280;52474;52.236;5.114;2023-02-01T12:33:41;101800.44;;;7.51;100.00
59170;BME280;52474;52.236;5.114;2023-02-01T12:36:21;101800.84;;;7.60;100.00
59170;BME280;52474;52.236;5.114;2023-02-01T12:46:50;101797.53;;;7.86;100.00
59170;BME280;52474;52.236;5.114;2023-02-01T12:49:25;101799.22;;;7.73;100.00
59170;BME280;52474;52.236;5.114;2023-02-01T12:51:58;101801.41;;;7.65;100.00
59170;BME280;52474;52.236;5.114;2023-02-01T12:54:37;101815.63;;;7.62;100.00
59170;BME280;52474;52.236;5.114;2023-02-01T12:57:08;101792.03;;;7.45;100.00
59170;BME280;52474;52.236;5.114;2023-02-01T12:59:42;101788.13;;;7.36;100.00
59170;BME280;52474;52.236;5.114;2023-02-01T13:02:18;101804.53;;;7.41;100.00
59170;BME280;52474;52.236;5.114;2023-02-01T13:07:31;101819.19;;;7.31;100.00
59170;BME280;52474;52.236;5.114;2023-02-01T13:10:24;101818.88;;;7.36;100.00
59170;BME280;52474;52.236;5.114;2023-02-01T13:12:58;101812.13;;;7.31;100.00
59170;BME280;52474;52.236;5.114;2023-02-01T13:15:30;101809.22;;;7.20;100.00
59170;BME280;52474;52.236;5.114;2023-02-01T13:18:01;101814.22;;;7.25;100.00
59170;BME280;52474;52.236;5.114;2023-02-01T13:23:33;101819.91;;;7.33;100.00
59170;BME280;52474;52.236;5.114;2023-02-01T13:26:00;101798.31;;;7.42;100.00
59170;BME280;52474;52.236;5.114;2023-02-01T13:28:42;101810.09;;;7.67;100.00
59170;BME280;52474;52.236;5.114;2023-02-01T13:33:54;101812.88;;;7.80;100.00
59170;BME280;52474;52.236;5.114;2023-02-01T13:42:03;101808.81;;;7.74;100.00
59170;BME280;52474;52.236;5.114;2023-02-01T13:47:09;101818.59;;;7.72;100.00
59170;BME280;52474;52.236;5.114;2023-02-01T13:49:38;101809.06;;;7.69;100.00
59170;BME280;52474;52.236;5.114;2023-02-01T13:52:05;101801.16;;;7.69;100.00
59170;BME280;52474;52.236;5.114;2023-02-01T13:56:58;101809.31;;;7.81;100.00
59170;BME280;52474;52.236;5.114;2023-02-01T13:59:49;101810.72;;;7.86;100.00
59170;BME280;52474;52.236;5.114;2023-02-01T14:05:11;101793.38;;;7.82;100.00
59170;BME280;52474;52.236;5.114;2023-02-01T14:23:58;101810.16;;;7.65;100.00
59170;BME280;52474;52.236;5.114;2023-02-01T14:29:03;101802.88;;;7.55;100.00
59170;BME280;52474;52.236;5.114;2023-02-01T14:34:17;101827.00;;;7.63;100.00
59170;BME280;52474;52.236;5.114;2023-02-01T14:36:47;101805.34;;;7.58;100.00
59170;BME280;52474;52.236;5.114;2023-02-01T14:39:24;101807.56;;;7.49;100.00
59170;BME280;52474;52.236;5.114;2023-02-01T14:41:55;101801.97;;;7.40;100.00
59170;BME280;52474;52.236;5.114;2023-02-01T14:44:25;101809.88;;;7.40;100.00
59170;BME280;52474;52.236;5.114;2023-02-01T14:47:25;101831.81;;;7.40;100.00
59170;BME280;52474;52.236;5.114;2023-02-01T14:52:33;101819.84;;;7.35;100.00
59170;BME280;52474;52.236;5.114;2023-02-01T14:55:05;101824.53;;;7.29;100.00
59170;BME280;52474;52.236;5.114;2023-02-01T14:57:34;101825.34;;;7.30;100.00
59170;BME280;52474;52.236;5.114;2023-02-01T15:00:30;101824.59;;;7.28;100.00
59170;BME280;52474;52.236;5.114;2023-02-01T15:03:21;101836.66;;;7.32;100.00
59170;BME280;52474;52.236;5.114;2023-02-01T15:05:59;101837.44;;;7.34;100.00
59170;BME280;52474;52.236;5.114;2023-02-01T15:08:37;101833.84;;;7.35;100.00
59170;BME280;52474;52.236;5.114;2023-02-01T15:11:11;101843.13;;;7.42;100.00
59170;BME280;52474;52.236;5.114;2023-02-01T15:13:38;101833.34;;;7.44;100.00
59170;BME280;52474;52.236;5.114;2023-02-01T15:16:13;101844.91;;;7.42;100.00
59170;BME280;52474;52.236;5.114;2023-02-01T15:18:40;101847.72;;;7.39;100.00
59170;BME280;52474;52.236;5.114;2023-02-01T15:21:18;101844.22;;;7.38;100.00